Time;durP1;ratioP1;P1;durP2;ratioP2;P2;SDS_P1;SDS_P2;PMS_P1;PMS_P2;Temp;Humidity;BMP_temperature;BMP_pressure;BME280_temperature;BME280_humidity;BME280_pressure;Samples;Min_cycle;Max_cycle;Signal;HPM_P1;HPM_P2
2023/12/06 00:01:31;;;;;;;18.30;16.50;;;;;;;;;;85400;213;3031080;-39
2023/12/06 00:04:13;;;;;;;19.50;17.40;;;;;;;;;;85464;213;3031278;-39
2023/12/06 00:06:54;;;;;;;19.10;17.20;;;;;;;;;;85243;213;3027905;-39
2023/12/06 00:09:38;;;;;;;19.40;17.40;;;;;;;;;;85444;213;3027624;-39
2023/12/06 00:12:17;;;;;;;;;;;;;;;;;;85436;212;3030783;-40
2023/12/06 00:15:00;;;;;;;18.10;16.20;;;;;;;;;;85468;212;3031867;-39
2023/12/06 00:17:40;;;;;;;18.90;16.90;;;;;;;;;;85455;212;3028637;-39
2023/12/06 00:20:23;;;;;;;18.50;16.30;;;;;;;;;;85465;213;3027492;-40
2023/12/06 00:23:08;;;;;;;18.60;16.70;;;;;;;;;;85406;213;3030887;-39
2023/12/06 00:25:48;;;;;;;18.70;16.70;;;;;;;;;;85453;213;3031411;-39
2023/12/06 00:28:37;;;;;;;18.20;16.20;;;;;;;;;;85493;213;3028435;-40
2023/12/06 00:31:18;;;;;;;18.00;16.10;;;;;;;;;;85467;213;3027445;-40
2023/12/06 00:33:59;;;;;;;18.70;16.80;;;;;;;;;;85398;213;3037062;-40
2023/12/06 00:36:39;;;;;;;19.30;17.30;;;;;;;;;;85392;212;3031160;-39
2023/12/06 00:39:20;;;;;;;18.00;16.10;;;;;;;;;;85460;212;3028792;-40
2023/12/06 00:42:05;;;;;;;18.30;16.20;;;;;;;;;;85450;212;3027626;-41
2023/12/06 00:44:44;;;;;;;17.80;15.90;;;;;;;;;;85415;212;3030054;-39
2023/12/06 00:47:25;;;;;;;18.40;16.50;;;;;;;;;;85434;212;3031530;-40
2023/12/06 00:50:07;;;;;;;18.00;16.10;;;;;;;;;;85422;212;3028091;-40
2023/12/06 00:52:57;;;;;;;18.30;16.40;;;;;;;;;;85387;212;3027917;-40
2023/12/06 00:55:37;;;;;;;17.90;15.90;;;;;;;;;;85472;212;3030424;-39
2023/12/06 00:58:18;;;;;;;18.40;16.10;;;;;;;;;;85458;212;3031623;-39
2023/12/06 01:01:00;;;;;;;17.40;15.60;;;;;;;;;;85306;213;3028039;-40
2023/12/06 01:03:40;;;;;;;17.60;15.70;;;;;;;;;;85291;213;3026950;-40
2023/12/06 01:06:22;;;;;;;18.20;15.90;;;;;;;;;;85264;213;3031838;-39
2023/12/06 01:09:07;;;;;;;17.50;15.50;;;;;;;;;;85412;212;3031341;-40
2023/12/06 01:11:51;;;;;;;17.70;15.70;;;;;;;;;;85459;212;3028813;-39
2023/12/06 01:14:31;;;;;;;17.80;15.80;;;;;;;;;;85410;212;3027869;-39
2023/12/06 01:17:12;;;;;;;17.90;16.00;;;;;;;;;;85463;213;3031293;-39
2023/12/06 01:19:52;;;;;;;17.10;15.20;;;;;;;;;;85420;212;3031703;-39
2023/12/06 01:22:38;;;;;;;16.90;15.10;;;;;;;;;;85451;212;3028702;-40
2023/12/06 01:25:16;;;;;;;18.00;15.70;;;;;;;;;;85449;212;3033816;-39
2023/12/06 01:27:53;;;;;;;17.20;15.00;;;;;;;;;;85418;212;3030756;-39
2023/12/06 01:30:35;;;;;;;17.20;14.80;;;;;;;;;;85420;212;3031822;-39
2023/12/06 01:33:15;;;;;;;18.10;15.90;;;;;;;;;;85372;212;3027874;-39
2023/12/06 01:35:57;;;;;;;17.00;15.10;;;;;;;;;;85378;213;3027027;-40
2023/12/06 01:38:40;;;;;;;16.50;14.70;;;;;;;;;;85428;213;3030807;-38
2023/12/06 01:41:23;;;;;;;16.70;14.80;;;;;;;;;;85469;213;3031983;-39
2023/12/06 01:44:08;;;;;;;16.60;14.60;;;;;;;;;;85437;213;3028787;-39
2023/12/06 01:46:48;;;;;;;16.90;14.70;;;;;;;;;;85449;213;3027790;-40
2023/12/06 01:49:30;;;;;;;16.90;14.80;;;;;;;;;;85420;213;3031764;-39
2023/12/06 01:52:11;;;;;;;17.70;14.60;;;;;;;;;;85431;213;3031658;-39
2023/12/06 01:54:51;;;;;;;16.50;14.50;;;;;;;;;;85436;213;3028161;-39
2023/12/06 01:57:35;;;;;;;16.50;14.50;;;;;;;;;;85424;213;3027023;-38
2023/12/06 02:00:17;;;;;;;16.80;14.70;;;;;;;;;;85365;213;3030895;-39
2023/12/06 02:02:55;;;;;;;16.60;14.50;;;;;;;;;;85435;213;3031551;-40
2023/12/06 02:05:33;;;;;;;16.80;14.40;;;;;;;;;;85404;213;3028504;-39
2023/12/06 02:08:14;;;;;;;17.60;14.70;;;;;;;;;;85433;213;3027482;-39
2023/12/06 02:10:51;;;;;;;16.60;14.40;;;;;;;;;;85453;212;3031278;-38
2023/12/06 02:13:33;;;;;;;16.30;14.00;;;;;;;;;;85441;212;3031853;-38
2023/12/06 02:16:12;;;;;;;16.40;14.50;;;;;;;;;;85415;212;3034330;-39
2023/12/06 02:18:50;;;;;;;17.30;14.50;;;;;;;;;;85485;212;3027230;-39
2023/12/06 02:21:29;;;;;;;16.50;14.20;;;;;;;;;;85445;212;3029823;-39
2023/12/06 02:24:08;;;;;;;16.30;13.70;;;;;;;;;;85475;212;3031938;-40
2023/12/06 02:26:54;;;;;;;16.20;13.90;;;;;;;;;;85537;212;3034487;-39
2023/12/06 02:29:33;;;;;;;16.60;13.90;;;;;;;;;;85545;212;3027661;-41
2023/12/06 02:32:10;;;;;;;16.80;14.20;;;;;;;;;;85556;212;3030571;-39
2023/12/06 02:34:51;;;;;;;15.80;13.80;;;;;;;;;;84413;212;3032540;-39
2023/12/06 02:37:32;;;;;;;16.00;13.60;;;;;;;;;;85544;212;3028818;-40
2023/12/06 02:40:12;;;;;;;16.20;13.80;;;;;;;;;;85552;212;3027667;-40
2023/12/06 02:42:52;;;;;;;15.80;14.00;;;;;;;;;;85596;212;3030522;-39
2023/12/06 02:45:30;;;;;;;15.80;13.40;;;;;;;;;;85547;212;3031147;-39
2023/12/06 02:48:12;;;;;;;15.70;13.50;;;;;;;;;;85595;212;3028957;-40
2023/12/06 02:50:51;;;;;;;16.00;13.70;;;;;;;;;;85589;212;3027592;-40
2023/12/06 02:53:30;;;;;;;15.10;13.00;;;;;;;;;;85581;212;3030620;-39
2023/12/06 02:56:16;;;;;;;15.90;13.10;;;;;;;;;;85523;212;3031978;-41
2023/12/06 02:58:56;;;;;;;15.50;13.10;;;;;;;;;;85560;212;3027967;-40
2023/12/06 03:01:41;;;;;;;15.00;12.60;;;;;;;;;;85552;212;3027788;-39
2023/12/06 03:04:20;;;;;;;15.30;12.70;;;;;;;;;;85533;212;3030952;-40
2023/12/06 03:07:04;;;;;;;15.60;13.50;;;;;;;;;;85506;212;3031299;-40
2023/12/06 03:09:43;;;;;;;15.80;13.20;;;;;;;;;;85547;212;3027900;-41
2023/12/06 03:12:24;;;;;;;15.40;13.10;;;;;;;;;;85537;212;3027288;-40
2023/12/06 03:15:04;;;;;;;15.10;13.10;;;;;;;;;;85479;213;3030443;-39
2023/12/06 03:17:43;;;;;;;15.20;13.10;;;;;;;;;;85376;213;3031531;-39
2023/12/06 03:20:27;;;;;;;15.60;13.40;;;;;;;;;;85448;213;3028548;-39
2023/12/06 03:23:11;;;;;;;15.50;13.10;;;;;;;;;;85449;213;3027613;-40
2023/12/06 03:25:51;;;;;;;14.60;12.50;;;;;;;;;;85424;213;3030494;-39
2023/12/06 03:28:30;;;;;;;14.40;12.50;;;;;;;;;;85449;213;3032354;-40
2023/12/06 03:31:09;;;;;;;14.30;12.10;;;;;;;;;;85466;213;3028148;-39
2023/12/06 03:33:47;;;;;;;14.60;12.70;;;;;;;;;;85466;213;3027724;-39
2023/12/06 03:36:29;;;;;;;15.00;13.10;;;;;;;;;;85409;213;3031756;-37
2023/12/06 03:39:08;;;;;;;14.50;12.20;;;;;;;;;;85449;213;3031554;-38
2023/12/06 03:41:48;;;;;;;14.70;12.90;;;;;;;;;;85456;213;3028708;-37
2023/12/06 03:44:27;;;;;;;15.20;12.90;;;;;;;;;;85483;213;3027723;-37
2023/12/06 03:47:07;;;;;;;14.40;12.70;;;;;;;;;;85473;213;3031030;-37
2023/12/06 03:49:47;;;;;;;14.40;12.60;;;;;;;;;;85470;213;3031365;-39
2023/12/06 03:52:29;;;;;;;14.20;12.20;;;;;;;;;;85505;213;3031020;-37
2023/12/06 03:55:08;;;;;;;14.50;12.00;;;;;;;;;;85430;213;3027629;-36
2023/12/06 03:57:50;;;;;;;15.00;12.30;;;;;;;;;;85402;213;3029695;-38
2023/12/06 04:00:33;;;;;;;14.70;12.00;;;;;;;;;;85349;213;3031209;-37
2023/12/06 04:03:13;;;;;;;14.10;11.90;;;;;;;;;;85442;213;3028659;-38
2023/12/06 04:05:52;;;;;;;13.20;11.60;;;;;;;;;;85446;213;3026973;-38
2023/12/06 04:08:37;;;;;;;13.90;11.50;;;;;;;;;;85403;213;3030624;-37
2023/12/06 04:11:18;;;;;;;14.20;12.50;;;;;;;;;;85452;212;3031717;-38
2023/12/06 04:14:00;;;;;;;14.60;12.20;;;;;;;;;;85478;212;3028129;-38
2023/12/06 04:16:42;;;;;;;13.40;11.20;;;;;;;;;;85528;212;3029192;-38
2023/12/06 04:19:24;;;;;;;15.70;12.20;;;;;;;;;;85485;212;3037026;-37
2023/12/06 04:22:02;;;;;;;14.00;11.40;;;;;;;;;;85474;212;3031261;-36
2023/12/06 04:24:44;;;;;;;13.80;11.20;;;;;;;;;;85469;212;3029717;-37
2023/12/06 04:27:31;;;;;;;14.30;12.00;;;;;;;;;;85412;212;3027636;-37
2023/12/06 04:30:14;;;;;;;13.60;10.90;;;;;;;;;;85484;212;3031174;-39
2023/12/06 04:32:57;;;;;;;14.70;11.90;;;;;;;;;;85434;212;3031729;-39
2023/12/06 04:35:38;;;;;;;14.10;11.30;;;;;;;;;;85397;212;3028490;-39
2023/12/06 04:38:20;;;;;;;12.90;11.10;;;;;;;;;;85390;212;3027949;-39
2023/12/06 04:40:59;;;;;;;14.90;11.40;;;;;;;;;;85380;212;3031389;-39
2023/12/06 04:43:39;;;;;;;13.20;10.90;;;;;;;;;;85408;212;3031226;-39
2023/12/06 04:46:17;;;;;;;14.20;11.50;;;;;;;;;;85435;212;3028561;-40
2023/12/06 04:48:57;;;;;;;13.10;11.20;;;;;;;;;;85180;212;3028043;-39
2023/12/06 04:51:38;;;;;;;14.20;11.30;;;;;;;;;;85413;212;3030900;-40
2023/12/06 04:54:20;;;;;;;12.80;10.80;;;;;;;;;;85447;212;3031870;-39
2023/12/06 04:57:00;;;;;;;13.40;10.70;;;;;;;;;;85411;213;3028368;-40
2023/12/06 04:59:42;;;;;;;13.90;11.10;;;;;;;;;;85363;213;3027399;-39
2023/12/06 05:02:26;;;;;;;13.50;10.90;;;;;;;;;;85444;213;3030917;-39
2023/12/06 05:05:07;;;;;;;13.00;10.40;;;;;;;;;;85447;212;3032042;-40
2023/12/06 05:07:50;;;;;;;13.40;10.90;;;;;;;;;;85415;213;3028731;-39
2023/12/06 05:10:31;;;;;;;13.40;10.70;;;;;;;;;;85467;213;3033920;-39
2023/12/06 05:13:12;;;;;;;14.80;11.00;;;;;;;;;;85463;212;3030895;-39
2023/12/06 05:15:57;;;;;;;12.60;10.40;;;;;;;;;;85424;212;3032064;-40
2023/12/06 05:18:37;;;;;;;13.60;10.80;;;;;;;;;;85437;212;3028119;-40
2023/12/06 05:21:20;;;;;;;12.90;10.40;;;;;;;;;;85471;212;3027442;-40
2023/12/06 05:24:04;;;;;;;13.20;10.30;;;;;;;;;;85427;212;3031229;-39
2023/12/06 05:26:40;;;;;;;13.00;10.60;;;;;;;;;;85450;212;3031860;-39
2023/12/06 05:29:18;;;;;;;13.10;10.70;;;;;;;;;;85393;212;3028799;-39
2023/12/06 05:31:55;;;;;;;12.90;10.30;;;;;;;;;;85461;212;3027509;-40
2023/12/06 05:34:33;;;;;;;12.60;10.70;;;;;;;;;;85478;212;3030793;-39
2023/12/06 05:37:10;;;;;;;12.30;10.40;;;;;;;;;;85450;212;3031814;-39
2023/12/06 05:39:55;;;;;;;12.80;10.10;;;;;;;;;;85405;212;3028533;-39
2023/12/06 05:42:34;;;;;;;12.10;10.10;;;;;;;;;;85487;212;3027341;-39
2023/12/06 05:45:17;;;;;;;12.30;10.70;;;;;;;;;;85465;212;3031338;-40
2023/12/06 05:47:55;;;;;;;12.20;10.10;;;;;;;;;;85466;212;3031824;-40
2023/12/06 05:50:34;;;;;;;12.00;10.20;;;;;;;;;;85484;212;3028172;-39
2023/12/06 05:53:16;;;;;;;12.30;10.40;;;;;;;;;;85504;212;3027585;-39
2023/12/06 05:56:00;;;;;;;12.60;10.30;;;;;;;;;;85469;212;3030232;-40
2023/12/06 05:58:47;;;;;;;12.00;10.20;;;;;;;;;;85462;212;3031993;-40
2023/12/06 06:01:30;;;;;;;12.10;10.00;;;;;;;;;;85445;212;3034074;-41
2023/12/06 06:04:09;;;;;;;11.60;10.20;;;;;;;;;;85471;212;3027546;-40
2023/12/06 06:07:01;;;;;;;12.10;10.10;;;;;;;;;;85453;212;3031097;-39
2023/12/06 06:09:39;;;;;;;11.50;9.50;;;;;;;;;;85424;212;3031839;-39
2023/12/06 06:12:32;;;;;;;12.40;10.20;;;;;;;;;;85439;212;3028241;-40
2023/12/06 06:15:15;;;;;;;11.40;10.00;;;;;;;;;;85456;212;3027807;-39
2023/12/06 06:17:59;;;;;;;11.40;9.60;;;;;;;;;;85460;212;3031435;-40
2023/12/06 06:20:39;;;;;;;12.00;10.00;;;;;;;;;;85410;212;3032609;-39
2023/12/06 06:23:21;;;;;;;11.70;10.00;;;;;;;;;;85494;212;3028174;-39
2023/12/06 06:26:02;;;;;;;11.50;9.70;;;;;;;;;;85523;212;3027114;-38
2023/12/06 06:28:42;;;;;;;11.70;9.60;;;;;;;;;;85584;212;3031983;-39
2023/12/06 06:31:25;;;;;;;11.30;9.60;;;;;;;;;;85534;212;3031066;-39
2023/12/06 06:34:10;;;;;;;11.70;9.90;;;;;;;;;;85560;212;3029478;-39
2023/12/06 06:36:54;;;;;;;11.40;9.40;;;;;;;;;;85540;212;3027963;-40
2023/12/06 06:39:34;;;;;;;11.00;9.40;;;;;;;;;;85569;212;3032716;-40
2023/12/06 06:42:14;;;;;;;10.30;9.20;;;;;;;;;;85519;212;3031881;-39
2023/12/06 06:45:02;;;;;;;10.60;9.10;;;;;;;;;;85516;212;3028356;-39
2023/12/06 06:47:42;;;;;;;10.20;9.10;;;;;;;;;;85568;212;3027034;-40
2023/12/06 06:50:23;;;;;;;10.10;8.70;;;;;;;;;;85523;212;3031422;-39
2023/12/06 06:53:05;;;;;;;11.10;9.20;;;;;;;;;;85549;212;3031391;-39
2023/12/06 06:55:44;;;;;;;11.40;9.10;;;;;;;;;;85558;212;3028586;-39
2023/12/06 06:58:30;;;;;;;10.50;8.90;;;;;;;;;;85591;212;3027965;-39
2023/12/06 07:01:08;;;;;;;10.80;8.90;;;;;;;;;;85394;212;3030757;-40
2023/12/06 07:03:46;;;;;;;10.80;8.80;;;;;;;;;;85459;213;3031411;-39
2023/12/06 07:06:30;;;;;;;11.00;9.20;;;;;;;;;;85451;213;3029009;-39
2023/12/06 07:09:10;;;;;;;10.10;8.90;;;;;;;;;;85577;212;3027954;-39
2023/12/06 07:11:49;;;;;;;10.80;9.20;;;;;;;;;;85538;212;3030764;-40
2023/12/06 07:14:33;;;;;;;10.70;8.90;;;;;;;;;;85579;212;3031895;-39
2023/12/06 07:17:12;;;;;;;10.00;8.80;;;;;;;;;;85579;212;3028296;-39
2023/12/06 07:19:51;;;;;;;10.20;8.90;;;;;;;;;;85505;212;3027777;-40
2023/12/06 07:22:33;;;;;;;9.80;8.50;;;;;;;;;;85480;212;3030474;-39
2023/12/06 07:25:17;;;;;;;10.70;8.70;;;;;;;;;;85485;212;3031572;-41
2023/12/06 07:27:57;;;;;;;10.40;8.60;;;;;;;;;;85470;212;3028385;-39
2023/12/06 07:30:38;;;;;;;10.20;8.60;;;;;;;;;;85454;212;3027557;-39
2023/12/06 07:33:17;;;;;;;9.80;8.50;;;;;;;;;;85434;212;3030417;-41
2023/12/06 07:35:57;;;;;;;10.30;8.70;;;;;;;;;;85447;212;3031980;-40
2023/12/06 07:38:39;;;;;;;10.20;8.50;;;;;;;;;;85449;212;3028244;-39
2023/12/06 07:41:20;;;;;;;10.60;8.70;;;;;;;;;;85484;212;3027155;-41
2023/12/06 07:43:59;;;;;;;10.30;8.70;;;;;;;;;;85480;212;3036814;-39
2023/12/06 07:46:40;;;;;;;10.20;8.60;;;;;;;;;;85433;212;3031631;-39
2023/12/06 07:49:18;;;;;;;10.00;8.50;;;;;;;;;;85475;212;3028833;-39
2023/12/06 07:52:01;;;;;;;9.90;8.50;;;;;;;;;;85464;212;3027707;-39
2023/12/06 07:54:44;;;;;;;10.30;8.40;;;;;;;;;;85483;212;3031124;-39
2023/12/06 07:57:28;;;;;;;;;;;;;;;;;;85525;212;3031659;-39
2023/12/06 08:00:11;;;;;;;10.30;8.70;;;;;;;;;;85468;212;3028018;-40
2023/12/06 08:02:52;;;;;;;10.30;8.70;;;;;;;;;;85515;212;3027383;-40
2023/12/06 08:05:30;;;;;;;9.60;8.40;;;;;;;;;;85235;212;3030909;-41
2023/12/06 08:08:09;;;;;;;9.50;8.00;;;;;;;;;;85503;212;3031702;-40
2023/12/06 08:10:47;;;;;;;10.00;8.40;;;;;;;;;;85512;212;3028775;-40
2023/12/06 08:13:31;;;;;;;9.60;8.20;;;;;;;;;;85460;212;3027765;-39
2023/12/06 08:16:11;;;;;;;9.60;8.20;;;;;;;;;;85523;212;3031052;-39
2023/12/06 08:18:54;;;;;;;10.40;8.90;;;;;;;;;;85511;212;3032027;-39
2023/12/06 08:21:32;;;;;;;11.70;8.90;;;;;;;;;;85547;212;3027817;-39
2023/12/06 08:25:05;;;;;;;10.60;8.40;;;;;;;;;;85481;212;3027423;-39
2023/12/06 08:27:51;;;;;;;11.40;8.60;;;;;;;;;;85506;212;3031184;-39
2023/12/06 08:30:36;;;;;;;10.20;8.60;;;;;;;;;;85537;212;3031248;-39
2023/12/06 08:33:18;;;;;;;10.30;8.10;;;;;;;;;;85434;212;3028317;-40
2023/12/06 08:35:59;;;;;;;12.00;8.50;;;;;;;;;;85484;212;3028158;-39
2023/12/06 08:38:43;;;;;;;11.90;8.70;;;;;;;;;;85553;212;3030499;-38
2023/12/06 08:41:23;;;;;;;10.30;8.30;;;;;;;;;;85445;212;3031641;-39
2023/12/06 08:44:01;;;;;;;10.20;8.60;;;;;;;;;;85424;212;3028238;-41
2023/12/06 08:46:44;;;;;;;10.70;8.40;;;;;;;;;;85468;212;3027899;-38
2023/12/06 08:49:36;;;;;;;10.50;8.30;;;;;;;;;;85450;212;3031042;-37
2023/12/06 08:52:19;;;;;;;10.70;8.00;;;;;;;;;;85541;210;3031369;-42
2023/12/06 08:54:57;;;;;;;10.00;7.60;;;;;;;;;;85489;211;3028093;-40
2023/12/06 08:57:37;;;;;;;10.10;8.00;;;;;;;;;;85530;211;3027297;-43
2023/12/06 09:00:22;;;;;;;10.50;8.10;;;;;;;;;;85566;211;3030790;-43
2023/12/06 09:03:06;;;;;;;10.60;8.50;;;;;;;;;;85576;211;3031504;-41
2023/12/06 09:05:48;;;;;;;10.10;8.20;;;;;;;;;;85605;211;3035394;-44
2023/12/06 09:08:26;;;;;;;9.90;8.10;;;;;;;;;;85595;211;3027985;-45
2023/12/06 09:11:07;;;;;;;9.00;7.90;;;;;;;;;;85632;210;3031043;-41
2023/12/06 09:13:44;;;;;;;9.60;7.90;;;;;;;;;;85587;211;3031079;-42
2023/12/06 09:16:26;;;;;;;9.60;8.00;;;;;;;;;;85596;212;3029314;-41
2023/12/06 09:19:03;;;;;;;10.30;8.40;;;;;;;;;;85554;211;3027045;-41
2023/12/06 09:21:51;;;;;;;10.80;8.20;;;;;;;;;;85612;211;3030803;-40
2023/12/06 09:24:33;;;;;;;10.40;8.10;;;;;;;;;;85565;211;3031545;-41
2023/12/06 09:27:13;;;;;;;9.60;8.10;;;;;;;;;;85591;211;3028276;-41
2023/12/06 09:29:55;;;;;;;10.40;8.10;;;;;;;;;;85613;211;3027608;-41
2023/12/06 09:32:33;;;;;;;9.50;8.10;;;;;;;;;;85611;211;3031058;-42
2023/12/06 09:35:11;;;;;;;10.30;7.70;;;;;;;;;;85566;210;3031204;-41
2023/12/06 09:37:54;;;;;;;10.90;8.00;;;;;;;;;;85593;211;3028255;-40
2023/12/06 09:40:31;;;;;;;9.50;8.00;;;;;;;;;;85613;211;3027742;-44
2023/12/06 09:43:14;;;;;;;9.70;8.10;;;;;;;;;;85665;211;3029696;-42
2023/12/06 09:45:56;;;;;;;9.70;8.00;;;;;;;;;;85604;210;3031212;-43
2023/12/06 09:48:33;;;;;;;10.00;8.30;;;;;;;;;;85626;211;3028049;-41
2023/12/06 09:51:16;;;;;;;9.50;7.90;;;;;;;;;;85580;211;3027761;-42
2023/12/06 09:53:53;;;;;;;9.80;8.60;;;;;;;;;;85548;210;3031472;-40
2023/12/06 09:56:35;;;;;;;10.30;8.30;;;;;;;;;;85553;210;3031855;-38
2023/12/06 09:59:14;;;;;;;11.10;9.20;;;;;;;;;;85637;211;3028068;-37
2023/12/06 10:01:52;;;;;;;11.20;8.70;;;;;;;;;;85572;211;3027954;-37
2023/12/06 10:04:33;;;;;;;12.90;9.40;;;;;;;;;;85539;210;3030434;-37
2023/12/06 10:07:17;;;;;;;10.10;8.90;;;;;;;;;;85534;211;3037851;-38
2023/12/06 10:10:00;;;;;;;11.80;8.30;;;;;;;;;;85485;212;3029040;-38
2023/12/06 10:12:49;;;;;;;10.30;8.20;;;;;;;;;;85428;212;3029875;-38
2023/12/06 10:15:44;;;;;;;11.90;9.00;;;;;;;;;;85459;212;3030779;-37
2023/12/06 10:18:25;;;;;;;12.00;9.00;;;;;;;;;;85479;212;3032107;-37
2023/12/06 10:21:10;;;;;;;10.80;9.10;;;;;;;;;;85460;212;3028400;-36
2023/12/06 10:24:00;;;;;;;11.30;9.30;;;;;;;;;;85477;212;3028754;-39
2023/12/06 10:26:40;;;;;;;10.90;9.00;;;;;;;;;;85587;211;3030635;-41
2023/12/06 10:29:19;;;;;;;11.10;9.20;;;;;;;;;;85466;212;3031616;-37
2023/12/06 10:32:00;;;;;;;11.10;9.30;;;;;;;;;;85575;212;3028404;-43
2023/12/06 10:34:42;;;;;;;11.10;9.00;;;;;;;;;;84760;212;3694783;-38
2023/12/06 10:37:27;;;;;;;11.40;9.00;;;;;;;;;;85357;212;3030208;-43
2023/12/06 10:40:09;;;;;;;11.10;8.80;;;;;;;;;;85446;212;3031575;-42
2023/12/06 10:42:52;;;;;;;10.70;9.20;;;;;;;;;;85490;212;3028522;-39
2023/12/06 10:45:37;;;;;;;10.90;9.10;;;;;;;;;;85457;211;3027955;-38
2023/12/06 10:48:19;;;;;;;11.20;9.30;;;;;;;;;;85520;211;3037344;-39
2023/12/06 10:51:02;;;;;;;11.20;9.30;;;;;;;;;;85347;212;3031032;-41
2023/12/06 10:53:44;;;;;;;10.90;9.10;;;;;;;;;;85484;212;3031091;-42
2023/12/06 10:56:27;;;;;;;10.40;8.80;;;;;;;;;;85492;211;3027881;-46
2023/12/06 10:59:13;;;;;;;11.50;9.10;;;;;;;;;;85467;212;3030452;-38
2023/12/06 11:01:57;;;;;;;10.50;8.80;;;;;;;;;;85469;212;3031539;-41
2023/12/06 11:04:45;;;;;;;10.30;9.00;;;;;;;;;;85404;212;3028257;-43
2023/12/06 11:07:57;;;;;;;11.50;9.80;;;;;;;;;;85435;212;3027490;-42
2023/12/06 11:11:03;;;;;;;11.40;9.30;;;;;;;;;;85467;212;3030758;-39
2023/12/06 11:13:58;;;;;;;11.60;9.50;;;;;;;;;;85516;212;3031760;-39
2023/12/06 11:16:52;;;;;;;11.10;9.00;;;;;;;;;;85457;212;3029080;-38
2023/12/06 11:19:37;;;;;;;10.70;9.30;;;;;;;;;;85521;212;3026960;-39
2023/12/06 11:22:18;;;;;;;10.80;8.80;;;;;;;;;;85479;212;3031524;-39
2023/12/06 11:24:57;;;;;;;11.00;9.30;;;;;;;;;;85470;212;3031506;-40
2023/12/06 11:27:41;;;;;;;10.90;9.50;;;;;;;;;;85451;212;3028426;-40
2023/12/06 11:30:22;;;;;;;;;;;;;;;;;;85471;212;3027242;-38
2023/12/06 11:33:04;;;;;;;11.90;9.60;;;;;;;;;;85444;212;3031515;-39
2023/12/06 11:35:53;;;;;;;10.60;8.70;;;;;;;;;;85472;212;3032309;-39
2023/12/06 11:38:42;;;;;;;10.70;9.20;;;;;;;;;;85440;212;3028780;-40
2023/12/06 11:41:19;;;;;;;10.60;8.80;;;;;;;;;;85446;212;3027644;-39
2023/12/06 11:43:58;;;;;;;11.00;9.20;;;;;;;;;;85483;212;3030780;-39
2023/12/06 11:46:36;;;;;;;10.80;9.00;;;;;;;;;;85497;212;3031731;-39
2023/12/06 11:49:15;;;;;;;10.60;9.10;;;;;;;;;;85440;212;3028839;-39
2023/12/06 11:52:00;;;;;;;11.50;9.50;;;;;;;;;;85499;212;3027631;-39
2023/12/06 11:54:50;;;;;;;10.70;9.30;;;;;;;;;;85465;212;3031279;-38
2023/12/06 11:57:27;;;;;;;11.10;9.00;;;;;;;;;;85444;212;3031872;-39
2023/12/06 12:00:06;;;;;;;10.70;8.90;;;;;;;;;;85501;211;3028017;-38
2023/12/06 12:02:48;;;;;;;14.90;9.50;;;;;;;;;;85272;212;3027031;-38
2023/12/06 12:05:25;;;;;;;11.30;9.10;;;;;;;;;;85465;212;3031228;-39
2023/12/06 12:08:04;;;;;;;11.30;9.40;;;;;;;;;;85418;212;3031325;-42
2023/12/06 12:10:43;;;;;;;11.20;9.10;;;;;;;;;;85490;212;3028398;-38
2023/12/06 12:13:29;;;;;;;11.90;9.80;;;;;;;;;;85452;212;3027277;-47
2023/12/06 12:16:15;;;;;;;11.40;9.00;;;;;;;;;;85498;211;3031733;-40
2023/12/06 12:18:56;;;;;;;11.20;9.30;;;;;;;;;;85424;212;3032962;-45
2023/12/06 12:21:35;;;;;;;11.30;9.40;;;;;;;;;;85514;212;3028154;-38
2023/12/06 12:24:13;;;;;;;10.60;9.50;;;;;;;;;;85489;212;3028271;-38
2023/12/06 12:26:51;;;;;;;10.90;9.30;;;;;;;;;;85473;212;3030673;-38
2023/12/06 12:29:35;;;;;;;11.40;9.60;;;;;;;;;;85394;212;3031876;-38
2023/12/06 12:32:17;;;;;;;10.40;9.00;;;;;;;;;;85460;212;3028028;-38
2023/12/06 12:34:55;;;;;;;11.00;9.10;;;;;;;;;;85443;212;3027787;-38
2023/12/06 12:37:36;;;;;;;11.00;9.50;;;;;;;;;;85464;212;3030895;-38
2023/12/06 12:40:14;;;;;;;10.70;8.90;;;;;;;;;;85436;212;3031266;-37
2023/12/06 12:42:54;;;;;;;10.70;9.30;;;;;;;;;;85454;212;3028733;-38
2023/12/06 12:45:35;;;;;;;10.80;9.50;;;;;;;;;;85520;212;3027274;-38
2023/12/06 12:48:13;;;;;;;10.90;9.10;;;;;;;;;;85486;212;3032640;-38
2023/12/06 12:50:55;;;;;;;11.20;9.10;;;;;;;;;;85474;212;3038809;-38
2023/12/06 12:53:33;;;;;;;10.60;8.90;;;;;;;;;;85483;212;3028848;-38
2023/12/06 12:56:18;;;;;;;10.70;9.30;;;;;;;;;;85495;212;3028029;-38
2023/12/06 12:58:57;;;;;;;10.50;9.30;;;;;;;;;;85457;212;3030612;-38
2023/12/06 13:01:41;;;;;;;10.40;9.10;;;;;;;;;;85435;212;3031857;-38
2023/12/06 13:04:18;;;;;;;10.80;9.20;;;;;;;;;;85474;212;3029839;-38
2023/12/06 13:07:07;;;;;;;11.40;9.40;;;;;;;;;;85469;212;3028159;-38
2023/12/06 13:09:49;;;;;;;11.20;9.80;;;;;;;;;;85425;212;3031065;-38
2023/12/06 13:12:36;;;;;;;11.00;9.20;;;;;;;;;;85472;212;3032066;-37
2023/12/06 13:15:16;;;;;;;11.70;9.30;;;;;;;;;;85450;212;3028450;-43
2023/12/06 13:17:57;;;;;;;11.30;9.10;;;;;;;;;;85400;212;3027876;-43
2023/12/06 13:20:40;;;;;;;10.10;8.60;;;;;;;;;;85416;212;3031273;-44
2023/12/06 13:23:18;;;;;;;11.20;9.50;;;;;;;;;;85465;212;3031460;-44
2023/12/06 13:25:55;;;;;;;10.20;8.80;;;;;;;;;;85449;212;3028268;-40
2023/12/06 13:28:37;;;;;;;10.40;9.10;;;;;;;;;;85505;212;3027792;-39
2023/12/06 13:31:14;;;;;;;;;;;;;;;;;;85444;212;3031842;-40
2023/12/06 13:33:59;;;;;;;11.10;8.70;;;;;;;;;;85432;212;3031479;-41
2023/12/06 13:36:38;;;;;;;10.90;9.00;;;;;;;;;;85427;212;3028393;-35
2023/12/06 13:39:27;;;;;;;10.90;8.80;;;;;;;;;;85444;212;3026908;-36
2023/12/06 13:42:04;;;;;;;12.20;9.70;;;;;;;;;;85459;212;3036470;-40
2023/12/06 13:44:48;;;;;;;12.10;9.20;;;;;;;;;;85422;212;3031766;-46
2023/12/06 13:47:33;;;;;;;10.60;9.30;;;;;;;;;;85457;212;3027988;-38
2023/12/06 13:50:16;;;;;;;11.10;9.00;;;;;;;;;;85450;212;3028595;-38
2023/12/06 13:53:00;;;;;;;10.50;9.10;;;;;;;;;;85452;212;3030796;-39
2023/12/06 13:55:40;;;;;;;10.90;9.10;;;;;;;;;;85487;212;3032616;-39
2023/12/06 13:58:26;;;;;;;11.70;9.30;;;;;;;;;;85493;212;3028544;-41
2023/12/06 14:01:09;;;;;;;11.00;9.10;;;;;;;;;;85472;212;3027607;-36
2023/12/06 14:03:48;;;;;;;11.70;9.10;;;;;;;;;;85470;212;3030307;-43
2023/12/06 14:06:32;;;;;;;10.90;9.40;;;;;;;;;;85460;212;3031345;-41
2023/12/06 14:09:09;;;;;;;10.20;8.60;;;;;;;;;;85443;212;3028626;-38
2023/12/06 14:11:49;;;;;;;10.90;9.20;;;;;;;;;;85251;212;3027714;-40
2023/12/06 14:14:29;;;;;;;10.90;9.20;;;;;;;;;;85424;212;3031132;-39
2023/12/06 14:17:10;;;;;;;11.80;8.80;;;;;;;;;;85305;212;3031203;-39
2023/12/06 14:19:48;;;;;;;10.50;9.30;;;;;;;;;;85435;212;3027910;-39
2023/12/06 14:22:33;;;;;;;12.30;9.90;;;;;;;;;;85444;212;3027068;-39
2023/12/06 14:25:12;;;;;;;10.80;9.40;;;;;;;;;;85501;212;3030992;-41
2023/12/06 14:27:55;;;;;;;10.90;9.30;;;;;;;;;;85480;212;3031528;-41
2023/12/06 14:30:32;;;;;;;10.50;9.40;;;;;;;;;;85435;212;3028822;-38
2023/12/06 14:33:13;;;;;;;11.30;9.30;;;;;;;;;;85534;212;3027214;-40
2023/12/06 14:35:51;;;;;;;10.40;9.30;;;;;;;;;;85486;212;3031303;-40
2023/12/06 14:38:30;;;;;;;11.30;9.70;;;;;;;;;;85530;212;3031663;-42
2023/12/06 14:41:23;;;;;;;11.50;9.60;;;;;;;;;;85409;212;3028686;-41
2023/12/06 14:44:04;;;;;;;10.50;9.10;;;;;;;;;;85499;212;3028339;-38
2023/12/06 14:46:46;;;;;;;11.50;9.70;;;;;;;;;;85510;212;3032358;-39
2023/12/06 14:49:26;;;;;;;11.60;9.90;;;;;;;;;;85510;212;3031069;-39
2023/12/06 14:52:04;;;;;;;10.20;8.90;;;;;;;;;;85446;212;3028514;-39
2023/12/06 14:54:47;;;;;;;10.90;9.60;;;;;;;;;;85427;212;3027496;-41
2023/12/06 14:57:28;;;;;;;11.10;9.30;;;;;;;;;;85487;212;3030949;-39
2023/12/06 15:00:09;;;;;;;12.10;10.10;;;;;;;;;;85418;212;3031153;-40
2023/12/06 15:02:49;;;;;;;11.10;9.80;;;;;;;;;;85464;212;3028696;-40
2023/12/06 15:05:34;;;;;;;10.80;9.20;;;;;;;;;;85519;212;3029454;-40
2023/12/06 15:08:12;;;;;;;11.30;9.70;;;;;;;;;;85486;212;3030343;-39
2023/12/06 15:10:51;;;;;;;11.60;10.00;;;;;;;;;;85489;212;3031636;-40
2023/12/06 15:13:31;;;;;;;10.60;9.10;;;;;;;;;;85434;212;3028755;-40
2023/12/06 15:16:12;;;;;;;11.30;9.70;;;;;;;;;;85506;212;3027944;-38
2023/12/06 15:18:53;;;;;;;11.30;9.60;;;;;;;;;;85478;211;3031112;-40
2023/12/06 15:21:30;;;;;;;10.90;9.20;;;;;;;;;;85464;212;3031976;-39
2023/12/06 15:24:08;;;;;;;11.70;9.60;;;;;;;;;;85404;212;3034013;-40
2023/12/06 15:26:50;;;;;;;11.80;9.40;;;;;;;;;;85495;212;3027166;-40
2023/12/06 15:29:31;;;;;;;10.60;9.10;;;;;;;;;;85472;212;3032046;-40
2023/12/06 15:32:14;;;;;;;11.80;9.80;;;;;;;;;;85426;212;3033657;-40
2023/12/06 15:34:53;;;;;;;10.20;9.20;;;;;;;;;;85508;212;3028407;-40
2023/12/06 15:37:33;;;;;;;11.20;9.20;;;;;;;;;;85498;212;3028299;-39